createdAt,value
2023-06-26T00:01:32.656Z,34.57
2023-06-26T00:04:01.705Z,34.88
2023-06-26T00:06:31.508Z,34.45
2023-06-26T00:09:00.965Z,34.90
2023-06-26T00:11:32.107Z,35.13
2023-06-26T00:14:01.302Z,34.39
2023-06-26T00:16:29.494Z,35.06
2023-06-26T00:18:57.621Z,35.33
2023-06-26T00:21:25.690Z,35.32
2023-06-26T00:23:55.260Z,34.81
2023-06-26T00:26:23.444Z,34.87
2023-06-26T00:28:51.537Z,35.53
2023-06-26T00:31:19.816Z,35.43
2023-06-26T00:33:47.989Z,35.66
2023-06-26T00:36:16.194Z,35.46
2023-06-26T00:38:44.363Z,35.99
2023-06-26T00:41:14.210Z,36.12
2023-06-26T00:43:42.742Z,36.16
2023-06-26T00:46:12.792Z,35.81
2023-06-26T00:48:45.887Z,36.75
2023-06-26T00:51:14.763Z,36.69
2023-06-26T00:53:44.092Z,37.23
2023-06-26T00:56:14.118Z,36.94
2023-06-26T00:58:42.359Z,37.04
2023-06-26T01:01:17.026Z,37.64
2023-06-26T01:03:45.928Z,37.63
2023-06-26T01:06:16.941Z,38.21
2023-06-26T01:08:46.332Z,37.92
2023-06-26T01:11:16.831Z,38.41
2023-06-26T01:13:46.236Z,38.04
2023-06-26T01:16:15.315Z,38.38
2023-06-26T01:21:42.653Z,38.55
2023-06-26T01:24:21.587Z,38.42
2023-06-26T01:26:53.267Z,38.62
2023-06-26T01:29:24.653Z,39.01
2023-06-26T01:31:52.908Z,38.81
2023-06-26T01:34:21.086Z,39.22
2023-06-26T01:36:49.171Z,39.23
2023-06-26T01:39:18.460Z,39.29
2023-06-26T01:41:46.892Z,39.47
2023-06-26T01:44:28.490Z,39.61
2023-06-26T01:47:02.497Z,39.71
2023-06-26T01:49:40.364Z,39.77
2023-06-26T01:52:15.619Z,40.19
2023-06-26T01:54:54.847Z,40.21
2023-06-26T01:57:25.070Z,40.32
2023-06-26T01:59:57.380Z,40.30
2023-06-26T02:02:26.909Z,40.23
2023-06-26T02:04:55.236Z,39.87
2023-06-26T02:07:23.525Z,40.06
2023-06-26T02:09:51.714Z,39.92
2023-06-26T02:12:19.737Z,39.99
2023-06-26T02:14:47.823Z,40.39
2023-06-26T02:17:17.361Z,40.57
2023-06-26T02:19:48.909Z,40.39
2023-06-26T02:22:18.016Z,40.52
2023-06-26T02:24:46.151Z,40.92
2023-06-26T02:27:14.512Z,40.82
2023-06-26T02:29:43.428Z,40.97
2023-06-26T02:32:11.596Z,40.58
2023-06-26T02:34:41.110Z,40.53
2023-06-26T02:37:09.272Z,40.22
2023-06-26T02:39:37.493Z,40.38
2023-06-26T02:42:06.080Z,40.52
2023-06-26T02:44:34.197Z,40.50
2023-06-26T02:47:02.389Z,40.74
2023-06-26T02:49:30.621Z,41.13
2023-06-26T02:52:00.067Z,40.88
2023-06-26T02:54:28.276Z,41.03
2023-06-26T02:56:56.308Z,41.36
2023-06-26T02:59:24.529Z,41.29
2023-06-26T03:01:52.706Z,41.73
2023-06-26T03:04:22.832Z,41.59
2023-06-26T03:06:51.073Z,41.44
2023-06-26T03:09:20.536Z,41.68
2023-06-26T03:11:48.649Z,41.65
2023-06-26T03:14:16.929Z,42.44
2023-06-26T03:16:45.160Z,42.19
2023-06-26T03:19:13.316Z,41.80
2023-06-26T03:21:41.367Z,41.78
2023-06-26T03:24:09.566Z,42.04
2023-06-26T03:26:39.173Z,41.43
2023-06-26T03:29:07.519Z,41.31
2023-06-26T03:31:35.794Z,41.47
2023-06-26T03:34:03.942Z,41.41
2023-06-26T03:36:31.971Z,41.56
2023-06-26T03:39:00.601Z,41.60
2023-06-26T03:41:28.787Z,42.06
2023-06-26T03:43:58.886Z,42.52
2023-06-26T03:46:27.035Z,42.92
2023-06-26T03:48:55.152Z,43.28
2023-06-26T03:51:23.340Z,43.62
2023-06-26T03:53:51.412Z,43.53
2023-06-26T03:56:19.397Z,43.49
2023-06-26T03:58:47.531Z,43.43
2023-06-26T04:01:17.151Z,43.30
2023-06-26T04:03:45.714Z,43.14
2023-06-26T04:06:13.950Z,43.14
2023-06-26T04:08:42.018Z,43.14
2023-06-26T04:11:10.201Z,43.23
2023-06-26T04:13:38.355Z,43.29
2023-06-26T04:16:07.580Z,43.07
2023-06-26T04:18:37.072Z,43.00
2023-06-26T04:21:10.871Z,43.01
2023-06-26T04:23:39.538Z,43.04
2023-06-26T04:26:08.735Z,43.18
2023-06-26T04:28:37.645Z,43.12
2023-06-26T04:31:05.866Z,43.15
2023-06-26T04:33:34.205Z,42.73
2023-06-26T04:36:05.144Z,42.56
2023-06-26T04:38:33.652Z,42.97
2023-06-26T04:41:02.136Z,42.50
2023-06-26T04:43:30.253Z,42.34
2023-06-26T04:45:58.899Z,42.38
2023-06-26T04:48:28.750Z,42.16
2023-06-26T04:50:57.239Z,42.27
2023-06-26T04:53:27.281Z,42.30
2023-06-26T04:55:55.491Z,42.42
2023-06-26T04:58:23.664Z,42.65
2023-06-26T05:00:51.820Z,42.73
2023-06-26T05:03:20.537Z,42.67
2023-06-26T05:05:48.851Z,42.69
2023-06-26T05:08:17.966Z,42.55
2023-06-26T05:10:47.763Z,42.50
2023-06-26T05:13:18.725Z,42.52
2023-06-26T05:15:47.171Z,42.51
2023-06-26T05:18:15.393Z,42.40
2023-06-26T05:20:43.942Z,42.41
2023-06-26T05:23:13.664Z,42.67
2023-06-26T05:25:42.795Z,42.13
2023-06-26T05:28:13.621Z,41.81
2023-06-26T05:30:42.329Z,41.81
2023-06-26T05:33:13.762Z,41.80
2023-06-26T05:35:43.338Z,41.58
2023-06-26T05:38:12.119Z,41.70
2023-06-26T05:40:41.964Z,41.36
2023-06-26T05:43:10.764Z,40.70
2023-06-26T05:45:40.419Z,40.85
2023-06-26T05:48:08.697Z,40.68
2023-06-26T05:50:38.307Z,40.53
2023-06-26T05:53:07.236Z,40.31
2023-06-26T05:55:35.965Z,40.26
2023-06-26T05:58:05.004Z,40.26
2023-06-26T06:00:33.823Z,40.27
2023-06-26T06:03:03.454Z,40.13
2023-06-26T06:05:31.587Z,39.15
2023-06-26T06:07:59.738Z,38.91
2023-06-26T06:10:27.879Z,39.00
2023-06-26T06:12:56.187Z,38.94
2023-06-26T06:15:24.213Z,38.73
2023-06-26T06:17:54.304Z,38.67
2023-06-26T06:20:23.786Z,38.32
2023-06-26T06:22:51.799Z,38.52
2023-06-26T06:25:19.923Z,39.03
2023-06-26T06:27:48.122Z,38.76
2023-06-26T06:30:16.430Z,38.13
2023-06-26T06:32:44.546Z,37.75
2023-06-26T06:35:12.704Z,37.57
2023-06-26T06:37:42.284Z,37.85
2023-06-26T06:40:12.839Z,37.06
2023-06-26T06:42:41.010Z,36.89
2023-06-26T06:45:09.941Z,37.29
2023-06-26T06:47:38.302Z,36.87
2023-06-26T06:50:10.113Z,35.59
2023-06-26T06:52:43.072Z,35.09
2023-06-26T06:55:11.348Z,34.71
2023-06-26T06:57:40.580Z,34.14
2023-06-26T07:00:11.297Z,34.36
2023-06-26T07:02:40.024Z,33.93
2023-06-26T07:05:08.906Z,34.20
2023-06-26T07:07:37.978Z,33.82
2023-06-26T07:10:10.054Z,33.71
2023-06-26T07:12:39.233Z,33.58
2023-06-26T07:15:08.874Z,32.99
2023-06-26T07:17:39.059Z,33.33
2023-06-26T07:20:09.905Z,33.24
2023-06-26T07:22:38.678Z,33.01
2023-06-26T07:25:10.654Z,33.42
2023-06-26T07:27:38.992Z,33.44
2023-06-26T07:30:10.186Z,32.83
2023-06-26T07:32:38.853Z,32.97
2023-06-26T07:35:07.800Z,32.21
2023-06-26T07:37:35.920Z,32.77
2023-06-26T07:40:05.074Z,32.14
2023-06-26T07:42:34.658Z,32.74
2023-06-26T07:45:02.836Z,31.96
2023-06-26T07:47:31.095Z,32.37
2023-06-26T07:49:59.328Z,31.69
2023-06-26T07:52:27.455Z,31.15
2023-06-26T07:54:55.570Z,31.08
2023-06-26T07:57:23.748Z,30.97
2023-06-26T07:59:53.445Z,31.06
2023-06-26T08:02:21.790Z,30.81
2023-06-26T08:04:49.924Z,30.68
2023-06-26T08:07:18.133Z,31.05
2023-06-26T08:09:46.289Z,30.29
2023-06-26T08:12:14.354Z,30.50
2023-06-26T08:14:42.489Z,30.69
2023-06-26T08:17:12.034Z,31.11
2023-06-26T08:19:40.130Z,30.89
2023-06-26T08:22:08.530Z,30.85
2023-06-26T08:24:38.243Z,30.64
2023-06-26T08:27:08.603Z,30.85
2023-06-26T08:29:36.802Z,30.54
2023-06-26T08:32:05.213Z,29.68
2023-06-26T08:34:34.629Z,29.42
2023-06-26T08:37:02.817Z,29.31
2023-06-26T08:39:31.925Z,30.22
2023-06-26T08:41:59.980Z,30.47
2023-06-26T08:44:28.231Z,29.84
2023-06-26T08:46:56.524Z,29.94
2023-06-26T08:49:30.882Z,29.85
2023-06-26T08:52:04.858Z,29.61
2023-06-26T08:54:38.966Z,29.43
2023-06-26T08:57:09.338Z,29.29
2023-06-26T08:59:37.602Z,28.59
2023-06-26T09:02:06.155Z,28.65
2023-06-26T09:04:34.272Z,28.79
2023-06-26T09:07:04.053Z,28.76
2023-06-26T09:09:32.347Z,28.79
2023-06-26T09:12:00.611Z,28.79
2023-06-26T09:14:29.262Z,29.03
2023-06-26T09:16:57.466Z,28.56
2023-06-26T09:19:25.718Z,28.31
2023-06-26T09:21:54.039Z,28.86
2023-06-26T09:24:24.880Z,28.92
2023-06-26T09:26:53.672Z,29.03
2023-06-26T09:29:22.433Z,29.61
2023-06-26T09:31:50.810Z,29.67
2023-06-26T09:34:20.546Z,29.83
2023-06-26T09:36:50.405Z,29.88
2023-06-26T09:39:18.489Z,29.68
2023-06-26T09:41:48.043Z,29.37
2023-06-26T09:44:17.153Z,29.28
2023-06-26T09:46:47.929Z,29.96
2023-06-26T09:49:16.148Z,29.70
2023-06-26T09:51:45.054Z,30.01
2023-06-26T09:54:13.306Z,30.43
2023-06-26T09:56:41.799Z,29.85
2023-06-26T09:59:11.477Z,30.21
2023-06-26T10:01:43.170Z,30.42
2023-06-26T10:04:11.634Z,30.76
2023-06-26T10:06:48.100Z,30.00
2023-06-26T10:09:18.969Z,30.67
2023-06-26T10:11:51.882Z,29.99
2023-06-26T10:14:23.383Z,30.05
2023-06-26T10:16:52.733Z,30.16
2023-06-26T10:19:26.462Z,30.36
2023-06-26T10:21:55.815Z,30.49
2023-06-26T10:24:25.284Z,30.81
2023-06-26T10:26:59.650Z,30.49
2023-06-26T10:29:30.672Z,29.72
2023-06-26T10:32:03.738Z,29.05
2023-06-26T10:34:33.148Z,29.71
2023-06-26T10:37:02.508Z,29.61
2023-06-26T10:39:48.328Z,29.28
2023-06-26T10:42:17.505Z,28.96
2023-06-26T10:44:48.498Z,28.42
2023-06-26T10:47:32.352Z,29.41
2023-06-26T10:50:23.737Z,29.38
2023-06-26T10:53:11.948Z,29.38
2023-06-26T10:55:43.395Z,28.80
2023-06-26T10:58:29.533Z,29.18
2023-06-26T11:01:23.994Z,28.68
2023-06-26T11:04:06.033Z,28.50
2023-06-26T11:06:35.720Z,28.00
2023-06-26T11:09:12.249Z,27.98
2023-06-26T11:12:06.902Z,28.06
2023-06-26T11:14:35.663Z,27.87
2023-06-26T11:17:08.547Z,27.84
2023-06-26T11:19:37.034Z,27.86
2023-06-26T11:22:06.770Z,27.81
2023-06-26T11:24:36.060Z,28.10
2023-06-26T11:27:06.803Z,27.80
2023-06-26T11:29:35.743Z,27.80
2023-06-26T11:32:08.392Z,27.96
2023-06-26T11:34:38.878Z,27.46
2023-06-26T11:37:07.862Z,27.91
2023-06-26T11:39:36.029Z,28.51
2023-06-26T11:42:04.377Z,28.46
2023-06-26T11:44:33.398Z,27.94
2023-06-26T11:47:01.527Z,27.73
2023-06-26T11:49:31.597Z,27.87
2023-06-26T11:52:00.171Z,28.08
2023-06-26T11:54:29.758Z,28.24
2023-06-26T11:56:59.806Z,28.16
2023-06-26T11:59:36.787Z,27.77
2023-06-26T12:02:09.285Z,27.86
2023-06-26T12:04:41.113Z,27.65
2023-06-26T12:07:11.358Z,28.31
2023-06-26T12:09:43.416Z,27.84
2023-06-26T12:12:12.390Z,28.04
2023-06-26T12:14:41.815Z,28.02
2023-06-26T12:17:12.741Z,27.79
2023-06-26T12:19:45.681Z,27.75
2023-06-26T12:22:13.862Z,27.59
2023-06-26T12:24:44.251Z,27.48
2023-06-26T12:27:13.694Z,27.60
2023-06-26T12:29:43.968Z,27.80
2023-06-26T12:32:14.007Z,27.01
2023-06-26T12:34:43.543Z,27.05
2023-06-26T12:37:14.772Z,26.62
2023-06-26T12:39:51.051Z,26.94
2023-06-26T12:42:21.418Z,27.27
2023-06-26T12:44:49.989Z,27.24
2023-06-26T12:47:19.271Z,26.62
2023-06-26T12:49:53.104Z,26.86
2023-06-26T12:52:22.084Z,26.66
2023-06-26T12:54:54.583Z,26.97
2023-06-26T12:57:22.695Z,26.69
2023-06-26T12:59:50.964Z,26.23
2023-06-26T13:02:19.478Z,26.38
2023-06-26T13:04:50.226Z,26.17
2023-06-26T13:07:18.551Z,26.34
2023-06-26T13:09:47.326Z,26.84
2023-06-26T13:12:15.500Z,26.91
2023-06-26T13:14:43.605Z,26.87
2023-06-26T13:17:13.407Z,27.21
2023-06-26T13:19:41.640Z,27.12
2023-06-26T13:22:11.244Z,27.10
2023-06-26T13:24:39.387Z,26.86
2023-06-26T13:27:08.025Z,26.58
2023-06-26T13:29:36.219Z,26.20
2023-06-26T13:32:04.926Z,26.46
2023-06-26T13:34:33.239Z,26.17
2023-06-26T13:37:02.157Z,26.53
2023-06-26T13:39:31.743Z,26.85
2023-06-26T13:41:59.987Z,26.67
2023-06-26T13:44:36.524Z,27.08
2023-06-26T13:47:15.669Z,27.21
2023-06-26T13:49:44.016Z,27.37
2023-06-26T13:52:12.211Z,27.00
2023-06-26T13:54:41.800Z,27.75
2023-06-26T13:57:10.223Z,27.01
2023-06-26T13:59:40.551Z,26.67
2023-06-26T14:02:09.856Z,26.84
2023-06-26T14:04:38.338Z,26.51
2023-06-26T14:07:08.361Z,26.52
2023-06-26T14:09:36.688Z,26.94
2023-06-26T14:12:07.309Z,26.88
2023-06-26T14:14:35.887Z,26.79
2023-06-26T14:17:04.300Z,26.86
2023-06-26T14:19:32.411Z,27.19
2023-06-26T14:22:00.709Z,27.52
2023-06-26T14:24:28.848Z,27.56
2023-06-26T14:26:57.027Z,27.65
2023-06-26T14:29:26.533Z,28.00
2023-06-26T14:31:56.526Z,27.77
2023-06-26T14:34:24.951Z,27.90
2023-06-26T14:36:53.009Z,28.37
2023-06-26T14:39:21.181Z,28.68
2023-06-26T14:41:49.823Z,28.88
2023-06-26T14:44:18.509Z,28.79
2023-06-26T14:46:48.586Z,28.86
2023-06-26T14:49:16.837Z,28.72
2023-06-26T14:51:44.986Z,28.96
2023-06-26T14:54:13.095Z,29.10
2023-06-26T14:56:41.286Z,29.02
2023-06-26T14:59:09.530Z,29.15
2023-06-26T15:01:37.640Z,29.48
2023-06-26T15:04:07.661Z,29.64
2023-06-26T15:06:35.956Z,29.40
2023-06-26T15:09:04.632Z,29.63
2023-06-26T15:11:32.744Z,29.34
2023-06-26T15:14:00.871Z,28.86
2023-06-26T15:16:29.129Z,28.85
2023-06-26T15:18:57.283Z,28.78
2023-06-26T15:21:26.846Z,28.97
2023-06-26T15:23:54.960Z,29.50
2023-06-26T15:26:23.510Z,29.72
2023-06-26T15:28:51.546Z,29.09
2023-06-26T15:31:19.923Z,29.05
2023-06-26T15:33:48.308Z,29.32
2023-06-26T15:36:16.741Z,29.26
2023-06-26T15:38:46.266Z,29.62
2023-06-26T15:41:14.434Z,29.71
2023-06-26T15:43:44.422Z,29.79
2023-06-26T15:46:12.736Z,29.88
2023-06-26T15:48:42.124Z,29.82
2023-06-26T15:51:10.478Z,29.62
2023-06-26T15:53:40.476Z,29.62
2023-06-26T15:56:12.030Z,29.67
2023-06-26T15:58:43.326Z,29.98
2023-06-26T16:01:12.489Z,29.66
2023-06-26T16:03:40.947Z,29.49
2023-06-26T16:06:10.231Z,29.41
2023-06-26T16:08:38.509Z,29.54
2023-06-26T16:11:06.978Z,29.52
2023-06-26T16:13:36.441Z,29.51
2023-06-26T16:16:04.658Z,29.84
2023-06-26T16:18:32.782Z,29.81
2023-06-26T16:21:01.007Z,29.63
2023-06-26T16:23:29.213Z,29.34
2023-06-26T16:25:57.497Z,29.03
2023-06-26T16:28:25.644Z,29.07
2023-06-26T16:30:55.183Z,29.54
2023-06-26T16:33:23.399Z,29.49
2023-06-26T16:35:51.499Z,29.75
2023-06-26T16:38:19.729Z,29.67
2023-06-26T16:40:47.848Z,29.61
2023-06-26T16:43:16.957Z,29.79
2023-06-26T16:45:45.057Z,29.64
2023-06-26T16:48:15.117Z,29.90
2023-06-26T16:50:43.367Z,29.94
2023-06-26T16:53:11.526Z,29.96
2023-06-26T16:55:39.630Z,29.42
2023-06-26T16:58:07.780Z,29.51
2023-06-26T17:00:36.618Z,29.77
2023-06-26T17:03:04.993Z,30.03
2023-06-26T17:05:35.359Z,30.32
2023-06-26T17:08:04.649Z,29.90
2023-06-26T17:10:32.836Z,29.71
2023-06-26T17:13:01.019Z,30.05
2023-06-26T17:15:29.514Z,30.37
2023-06-26T17:17:59.010Z,30.47
2023-06-26T17:20:27.198Z,30.32
2023-06-26T17:22:59.653Z,30.65
2023-06-26T17:25:27.922Z,30.21
2023-06-26T17:27:56.037Z,30.40
2023-06-26T17:30:24.401Z,30.85
2023-06-26T17:32:52.687Z,30.47
2023-06-26T17:35:20.862Z,30.13
2023-06-26T17:37:48.904Z,30.63
2023-06-26T17:40:18.585Z,30.58
2023-06-26T17:42:46.768Z,30.53
2023-06-26T17:45:15.169Z,30.82
2023-06-26T17:47:43.739Z,31.19
2023-06-26T17:50:14.358Z,31.07
2023-06-26T17:52:43.985Z,30.73
2023-06-26T17:55:12.756Z,30.98
2023-06-26T17:57:42.352Z,31.17
2023-06-26T18:00:11.685Z,31.54
2023-06-26T18:02:41.712Z,31.11
2023-06-26T18:05:10.875Z,31.27
2023-06-26T18:07:49.956Z,31.23
2023-06-26T18:10:26.084Z,31.35
2023-06-26T18:12:57.533Z,31.93
2023-06-26T18:15:26.032Z,31.61
2023-06-26T18:17:54.431Z,31.74
2023-06-26T18:20:22.653Z,32.19
2023-06-26T18:22:53.227Z,31.98
2023-06-26T18:25:21.454Z,32.52
2023-06-26T18:27:50.223Z,32.38
2023-06-26T18:30:19.795Z,32.97
2023-06-26T18:32:48.483Z,32.97
2023-06-26T18:35:16.660Z,33.02
2023-06-26T18:37:44.786Z,33.12
2023-06-26T18:40:16.076Z,33.76
2023-06-26T18:42:44.764Z,33.51
2023-06-26T18:45:14.057Z,34.03
2023-06-26T18:47:44.482Z,33.97
2023-06-26T18:50:12.908Z,33.87
2023-06-26T18:52:41.122Z,33.87
2023-06-26T18:55:10.216Z,33.94
2023-06-26T18:57:39.171Z,34.34
2023-06-26T19:00:09.989Z,34.38
2023-06-26T19:02:38.180Z,34.33
2023-06-26T19:05:08.679Z,34.29
2023-06-26T19:07:36.876Z,34.15
2023-06-26T19:10:07.815Z,34.34
2023-06-26T19:12:37.088Z,34.03
2023-06-26T19:15:05.994Z,34.15
2023-06-26T19:17:34.233Z,34.24
2023-06-26T19:20:02.460Z,34.25
2023-06-26T19:22:32.418Z,34.48
2023-06-26T19:25:01.645Z,33.90
2023-06-26T19:27:29.857Z,34.00
2023-06-26T19:29:58.004Z,34.23
2023-06-26T19:32:26.869Z,34.22
2023-06-26T19:34:55.076Z,34.07
2023-06-26T19:37:23.379Z,34.33
2023-06-26T19:39:54.234Z,34.35
2023-06-26T19:42:22.571Z,34.38
2023-06-26T19:44:51.024Z,34.53
2023-06-26T19:47:19.188Z,34.25
2023-06-26T19:49:47.394Z,34.44
2023-06-26T19:52:15.954Z,34.35
2023-06-26T19:54:44.267Z,34.42
2023-06-26T19:57:13.810Z,34.42
2023-06-26T19:59:41.997Z,34.38
2023-06-26T20:02:10.303Z,34.36
2023-06-26T20:04:38.724Z,34.27
2023-06-26T20:07:07.812Z,34.22
2023-06-26T20:09:36.130Z,34.28
2023-06-26T20:12:05.002Z,34.43
2023-06-26T20:14:34.872Z,34.41
2023-06-26T20:17:03.420Z,34.27
2023-06-26T20:19:32.933Z,34.62
2023-06-26T20:22:01.110Z,34.23
2023-06-26T20:24:30.827Z,34.35
2023-06-26T20:26:58.963Z,34.33
2023-06-26T20:29:27.178Z,34.26
2023-06-26T20:31:56.779Z,34.20
2023-06-26T20:34:24.982Z,34.25
2023-06-26T20:36:53.543Z,34.24
2023-06-26T20:39:21.627Z,34.35
2023-06-26T20:41:50.464Z,34.56
2023-06-26T20:44:19.083Z,34.41
2023-06-26T20:46:56.371Z,34.66
2023-06-26T20:49:27.080Z,34.25
2023-06-26T20:51:57.913Z,34.62
2023-06-26T20:54:27.024Z,34.38
2023-06-26T20:56:55.152Z,34.52
2023-06-26T20:59:23.381Z,34.79
2023-06-26T21:01:51.511Z,34.79
2023-06-26T21:04:19.695Z,34.73
2023-06-26T21:06:49.489Z,34.76
2023-06-26T21:09:18.010Z,34.93
2023-06-26T21:11:46.603Z,34.73
2023-06-26T21:14:14.917Z,35.16
2023-06-26T21:16:43.018Z,34.83
2023-06-26T21:19:11.159Z,35.37
2023-06-26T21:21:39.485Z,35.36
2023-06-26T21:24:10.184Z,35.24
2023-06-26T21:26:40.295Z,35.68
2023-06-26T21:29:08.669Z,35.56
2023-06-26T21:31:37.019Z,36.32
2023-06-26T21:34:05.219Z,36.17
2023-06-26T21:36:33.445Z,35.77
2023-06-26T21:39:02.085Z,36.00
2023-06-26T21:41:31.748Z,35.73
2023-06-26T21:43:59.827Z,36.29
2023-06-26T21:46:28.106Z,35.91
2023-06-26T21:48:56.370Z,35.66
2023-06-26T21:51:24.565Z,36.18
2023-06-26T21:53:52.729Z,36.53
2023-06-26T21:56:20.912Z,36.02
2023-06-26T21:58:50.448Z,36.16
2023-06-26T22:01:18.730Z,36.07
2023-06-26T22:03:47.010Z,35.98
2023-06-26T22:06:15.102Z,35.92
2023-06-26T22:08:43.396Z,36.13
2023-06-26T22:11:11.526Z,35.91
2023-06-26T22:13:39.606Z,35.88
2023-06-26T22:16:09.687Z,35.89
2023-06-26T22:18:37.926Z,35.63
2023-06-26T22:21:07.062Z,35.41
2023-06-26T22:23:35.330Z,35.96
2023-06-26T22:26:03.797Z,36.06
2023-06-26T22:28:32.130Z,36.20
2023-06-26T22:31:00.278Z,36.02
2023-06-26T22:33:29.787Z,35.74
2023-06-26T22:35:57.997Z,35.85
2023-06-26T22:38:26.205Z,36.30
2023-06-26T22:40:54.356Z,36.22
2023-06-26T22:43:22.602Z,36.12
2023-06-26T22:45:50.706Z,35.91
2023-06-26T22:48:18.969Z,35.44
2023-06-26T22:50:48.798Z,36.06
2023-06-26T22:53:19.264Z,35.74
2023-06-26T22:55:47.587Z,36.01
2023-06-26T22:58:15.687Z,35.81
2023-06-26T23:00:43.927Z,36.20
2023-06-26T23:03:14.661Z,36.00
2023-06-26T23:05:44.449Z,35.79
2023-06-26T23:08:14.907Z,36.63
2023-06-26T23:10:42.942Z,36.38
2023-06-26T23:13:10.993Z,36.42
2023-06-26T23:15:40.887Z,36.55
2023-06-26T23:18:09.232Z,36.75
2023-06-26T23:20:38.027Z,36.30
2023-06-26T23:23:06.254Z,36.63
2023-06-26T23:25:35.838Z,36.38
2023-06-26T23:28:04.487Z,37.21
2023-06-26T23:30:33.436Z,37.45
2023-06-26T23:33:07.588Z,37.62
2023-06-26T23:35:35.793Z,37.86
2023-06-26T23:38:04.177Z,38.04
2023-06-26T23:40:33.404Z,38.11
2023-06-26T23:43:04.599Z,38.25
2023-06-26T23:45:33.396Z,38.34
2023-06-26T23:48:01.628Z,38.57
2023-06-26T23:50:30.183Z,38.65
2023-06-26T23:52:58.582Z,38.97
2023-06-26T23:55:27.398Z,39.20
2023-06-26T23:57:55.500Z,39.34
